ftmx64

TAF MMCE 090457Z 0906/1006 05005KT P6SM SKC 
         TEMPO 0911/0915 4SM HZ 
         BKN015FM091800 13014KT P6SM BKN020 BKN080 
         FM100500 06005KT P6SM SCT020=
TAF MMCM 090457Z 0906/1006 11005KT P6SM SCT020 
         FM091800 09012KT P6SM BKN020 BKN080 
         FM100500 09005KT P6SM SCT020=
TAF MMCP 090457Z 0906/1006 36005KT P6SM SCT080 
         TEMPO 0911/0915 3SM BR HZ BKN008 
         FM091800 12014KT P6SM SCT030 BKN250 
         FM100500 02007KT P6SM SCT080=
TAF MMMT 090457Z 0906/1006 36006KT P6SM SKC 
         TEMPO 0911/0915 3SM BR HZ BKN008 
         FM091800 36014KT P6SM SCT025 BKN080 
         TEMPO 0921/1001 BKN020 
         FM100500 36006KT P6SM SKC=
TAF MMPQ 090457Z 0906/1006 00000KT 4SM HZ SCT040 
         FM091800 09014KT 6SM HZ SCT030 BKN100 
         FM100500 09005KT 5SM HZ SCT030=
TAF MMVA 090457Z 0906/1006 00000KT 5SM HZ SKC 
         TEMPO 0911/0915 3SM BR HZ BKN008 
         FM091800 12008KT P6SM BKN020 
         FM100500 00000KT 5SM HZ SKC=